Time;durP1;ratioP1;P1;durP2;ratioP2;P2;SDS_P1;SDS_P2;PMS_P1;PMS_P2;Temp;Humidity;BMP_temperature;BMP_pressure;BME280_temperature;BME280_humidity;BME280_pressure;Samples;Min_cycle;Max_cycle;Signal;HPM_P1;HPM_P2
2022/01/15 00:01:37;;;;;;;13.20;6.55;;;6.20;99.90;;;;;;4954155;29;20039;-84
2022/01/15 00:04:02;;;;;;;14.15;7.00;;;6.20;99.90;;;;;;4954270;29;20028;-83
2022/01/15 00:06:30;;;;;;;14.55;6.53;;;6.30;99.90;;;;;;4953300;29;20162;-84
2022/01/15 00:08:56;;;;;;;14.93;6.95;;;6.20;99.90;;;;;;4953455;29;20035;-83
2022/01/15 00:11:21;;;;;;;14.48;6.53;;;6.20;99.90;;;;;;4968660;28;20091;-83
2022/01/15 00:13:57;;;;;;;14.23;6.97;;;6.20;99.90;;;;;;4951235;29;20047;-84
2022/01/15 00:19:09;;;;;;;13.60;5.70;;;6.20;99.90;;;;;;4952167;29;20028;-83
2022/01/15 00:21:35;;;;;;;13.27;6.40;;;6.20;99.90;;;;;;4967621;28;20032;-82
2022/01/15 00:24:01;;;;;;;14.40;6.78;;;6.20;99.90;;;;;;4953087;29;20027;-86
2022/01/15 00:26:27;;;;;;;13.15;6.55;;;6.30;99.90;;;;;;4952299;29;20056;-85
2022/01/15 00:28:53;;;;;;;13.73;6.07;;;6.30;99.90;;;;;;4953246;29;20055;-84
2022/01/15 00:31:19;;;;;;;12.02;5.93;;;6.30;99.90;;;;;;4953475;29;20070;-84
2022/01/15 00:33:45;;;;;;;12.30;6.47;;;6.30;99.90;;;;;;4954295;29;20031;-83
2022/01/15 00:36:11;;;;;;;16.88;7.38;;;6.30;99.90;;;;;;4952382;29;20051;-83
2022/01/15 00:38:36;;;;;;;13.52;6.53;;;6.30;99.90;;;;;;4953499;29;20032;-83
2022/01/15 00:41:03;;;;;;;12.32;6.35;;;6.20;99.90;;;;;;4962895;28;20532;-84
2022/01/15 00:43:28;;;;;;;10.73;5.90;;;6.20;99.90;;;;;;4951209;29;20024;-85
2022/01/15 00:45:57;;;;;;;16.45;5.78;;;6.20;99.90;;;;;;4952512;29;20050;-83
2022/01/15 00:48:24;;;;;;;10.05;5.45;;;6.20;99.90;;;;;;4953050;29;20027;-83
2022/01/15 00:50:50;;;;;;;12.18;6.15;;;6.20;99.90;;;;;;4952076;29;20062;-84
2022/01/15 00:53:16;;;;;;;15.23;6.10;;;6.20;99.90;;;;;;4951384;29;20019;-84
2022/01/15 00:55:42;;;;;;;11.75;4.80;;;6.20;99.90;;;;;;4950343;29;20032;-82
2022/01/15 00:58:08;;;;;;;13.02;5.38;;;6.20;99.90;;;;;;4950390;29;20027;-83
2022/01/15 01:00:33;;;;;;;12.00;5.50;;;6.20;99.90;;;;;;4955884;28;20087;-81
2022/01/15 01:02:59;;;;;;;13.27;6.25;;;6.20;99.90;;;;;;4958988;28;20031;-80
2022/01/15 01:05:25;;;;;;;13.50;5.25;;;6.30;99.90;;;;;;4959745;28;20044;-81
2022/01/15 01:07:51;;;;;;;13.75;4.93;;;6.20;99.90;;;;;;4959112;28;20071;-81
2022/01/15 01:23:14;;;;;;;11.45;5.25;;;6.20;99.90;;;;;;4949733;29;20040;-83
2022/01/15 01:25:44;;;;;;;10.30;5.03;;;6.30;99.90;;;;;;4960606;28;20020;-83
2022/01/15 01:28:35;;;;;;;10.60;4.97;;;6.30;99.90;;;;;;4962561;28;20019;-81
2022/01/15 01:31:07;;;;;;;9.60;5.28;;;6.30;99.90;;;;;;4962821;28;20046;-82
2022/01/15 01:33:37;;;;;;;11.00;5.57;;;6.30;99.90;;;;;;4963205;28;20051;-82
2022/01/15 01:38:38;;;;;;;11.73;5.40;;;6.30;99.90;;;;;;4963105;28;20038;-81
2022/01/15 01:41:06;;;;;;;8.98;4.53;;;6.30;99.90;;;;;;4963299;28;20032;-82
2022/01/15 01:46:29;;;;;;;10.55;4.72;;;6.30;99.90;;;;;;4954477;28;20032;-84
2022/01/15 01:48:57;;;;;;;10.05;4.78;;;6.30;99.90;;;;;;4947977;29;20127;-82
2022/01/15 01:51:36;;;;;;;12.07;5.30;;;6.30;99.90;;;;;;4946157;29;20024;-82
2022/01/15 01:54:07;;;;;;;9.02;5.28;;;6.30;99.90;;;;;;4962085;29;20071;-84
2022/01/15 01:56:33;;;;;;;12.18;6.18;;;6.30;99.90;;;;;;4950685;29;20027;-82
2022/01/15 01:59:00;;;;;;;10.98;5.40;;;6.30;99.90;;;;;;4942857;29;20073;-82
2022/01/15 02:01:26;;;;;;;10.85;5.68;;;6.20;99.90;;;;;;4925401;29;20129;-83
2022/01/15 02:03:52;;;;;;;11.30;5.70;;;6.20;99.90;;;;;;4942907;29;20042;-84
2022/01/15 02:06:19;;;;;;;13.50;6.38;;;6.20;99.90;;;;;;4942070;29;20042;-83
2022/01/15 02:08:46;;;;;;;12.93;6.00;;;6.20;99.90;;;;;;4942731;29;20051;-84
2022/01/15 02:11:12;;;;;;;14.82;5.82;;;6.20;99.90;;;;;;4940913;29;20036;-82
2022/01/15 02:13:41;;;;;;;13.93;6.00;;;6.10;99.90;;;;;;4940248;29;20079;-82
2022/01/15 02:16:08;;;;;;;9.90;5.57;;;6.20;99.90;;;;;;4940074;29;20039;-84
2022/01/15 02:18:35;;;;;;;13.88;5.75;;;6.20;99.90;;;;;;4939485;29;20035;-83
2022/01/15 02:23:43;;;;;;;11.77;5.95;;;6.20;99.90;;;;;;4940548;29;20028;-84
2022/01/15 02:26:15;;;;;;;9.38;5.32;;;6.20;99.90;;;;;;4940882;29;20084;-83
2022/01/15 02:28:52;;;;;;;11.25;6.93;;;6.10;99.90;;;;;;4944970;29;20123;-83
2022/01/15 02:31:20;;;;;;;12.27;6.03;;;6.10;99.90;;;;;;4948907;29;20042;-84
2022/01/15 02:33:47;;;;;;;12.48;6.05;;;6.10;99.90;;;;;;4950239;29;20035;-82
2022/01/15 02:36:18;;;;;;;15.75;6.80;;;6.10;99.90;;;;;;4950612;29;20042;-84
2022/01/15 02:38:45;;;;;;;14.65;7.03;;;6.10;99.90;;;;;;4950678;29;20056;-85
2022/01/15 02:41:11;;;;;;;11.88;6.53;;;6.10;99.90;;;;;;4949972;29;20020;-82
2022/01/15 02:43:38;;;;;;;12.93;6.22;;;6.10;99.90;;;;;;4950329;29;20028;-86
2022/01/15 02:46:20;;;;;;;13.10;5.93;;;6.10;99.90;;;;;;4945558;29;20032;-84
2022/01/15 02:48:51;;;;;;;12.77;6.40;;;6.10;99.90;;;;;;4943072;29;20460;-84
2022/01/15 02:51:18;;;;;;;14.32;6.88;;;6.10;99.90;;;;;;4941092;29;20035;-84
2022/01/15 02:53:46;;;;;;;14.75;6.47;;;6.10;99.90;;;;;;4940878;29;20028;-84
2022/01/15 02:56:13;;;;;;;9.10;5.07;;;6.10;99.90;;;;;;4941554;29;20087;-83
2022/01/15 02:58:39;;;;;;;10.95;5.38;;;6.10;99.90;;;;;;4941088;29;20032;-85
2022/01/15 03:01:06;;;;;;;13.45;5.80;;;6.10;99.90;;;;;;4942276;29;20035;-83
2022/01/15 03:03:33;;;;;;;12.77;5.05;;;6.10;99.90;;;;;;4947172;29;20095;-84
2022/01/15 03:05:59;;;;;;;11.43;5.32;;;6.10;99.90;;;;;;4941608;29;20035;-84
2022/01/15 03:08:25;;;;;;;9.80;4.68;;;6.10;99.90;;;;;;4940781;29;20020;-85
2022/01/15 03:10:52;;;;;;;12.57;4.85;;;6.20;99.90;;;;;;4940847;29;20042;-84
2022/01/15 03:13:18;;;;;;;11.30;5.25;;;6.20;99.90;;;;;;4940621;29;20024;-84
2022/01/15 03:15:43;;;;;;;9.93;5.05;;;6.20;99.90;;;;;;4955025;28;20055;-83
2022/01/15 03:18:09;;;;;;;9.27;4.90;;;6.20;99.90;;;;;;4942158;29;20028;-84
2022/01/15 03:20:35;;;;;;;11.50;5.57;;;6.20;99.90;;;;;;4943708;29;20118;-84
2022/01/15 03:23:01;;;;;;;12.48;5.50;;;6.20;99.90;;;;;;4947215;29;20036;-85
2022/01/15 03:25:27;;;;;;;11.00;4.85;;;6.20;99.90;;;;;;4942966;29;20028;-84
2022/01/15 03:27:54;;;;;;;10.20;4.80;;;6.20;99.90;;;;;;4942224;29;20027;-84
2022/01/15 03:30:20;;;;;;;9.48;4.90;;;6.20;99.90;;;;;;4940800;29;20043;-82
2022/01/15 03:32:46;;;;;;;9.93;5.07;;;6.30;99.90;;;;;;4939812;29;20028;-85
2022/01/15 03:35:14;;;;;;;11.35;5.55;;;6.20;99.90;;;;;;4941490;29;20063;-85
2022/01/15 03:37:41;;;;;;;9.68;5.03;;;6.20;99.90;;;;;;4941442;29;20082;-84
2022/01/15 03:40:10;;;;;;;8.73;4.93;;;6.30;99.90;;;;;;4944561;29;20032;-85
2022/01/15 03:42:37;;;;;;;12.52;5.72;;;6.20;99.90;;;;;;4948250;29;20032;-83
2022/01/15 03:45:03;;;;;;;12.57;5.22;;;6.20;99.90;;;;;;4946093;29;20051;-82
2022/01/15 03:47:29;;;;;;;10.55;5.00;;;6.10;99.90;;;;;;4943147;29;20035;-85
2022/01/15 03:49:55;;;;;;;8.88;4.30;;;6.10;99.90;;;;;;4944348;29;20027;-85
2022/01/15 03:52:20;;;;;;;10.32;5.13;;;6.10;99.90;;;;;;4944517;29;20062;-83
2022/01/15 03:54:46;;;;;;;10.45;5.18;;;6.10;99.90;;;;;;4961903;28;20035;-81
2022/01/15 03:57:12;;;;;;;13.40;5.93;;;6.10;99.90;;;;;;4946043;29;20031;-83
2022/01/15 03:59:39;;;;;;;9.77;4.93;;;6.10;99.90;;;;;;4949862;29;20031;-84
2022/01/15 04:02:04;;;;;;;15.45;5.60;;;6.10;99.90;;;;;;4950040;29;20028;-83
2022/01/15 04:04:30;;;;;;;12.15;5.43;;;6.10;99.90;;;;;;4949634;29;20043;-84
2022/01/15 04:06:56;;;;;;;11.70;5.57;;;6.20;99.90;;;;;;4946192;29;20416;-84
2022/01/15 04:09:22;;;;;;;9.07;4.95;;;6.10;99.90;;;;;;4945971;29;20032;-83
2022/01/15 04:11:48;;;;;;;12.40;4.75;;;6.10;99.90;;;;;;4947563;29;20027;-85
2022/01/15 04:14:14;;;;;;;9.77;4.88;;;6.20;99.90;;;;;;4948499;29;20031;-85
2022/01/15 04:16:40;;;;;;;12.13;5.47;;;6.20;99.90;;;;;;4944487;29;20031;-85
2022/01/15 04:19:07;;;;;;;8.02;4.10;;;6.20;99.90;;;;;;4940402;29;20243;-85
2022/01/15 04:21:33;;;;;;;8.70;4.00;;;6.20;99.90;;;;;;4943454;29;20032;-84
2022/01/15 04:24:00;;;;;;;8.52;4.57;;;6.20;99.90;;;;;;4961576;29;20019;-83
2022/01/15 04:26:27;;;;;;;8.77;4.38;;;6.20;99.90;;;;;;4944499;29;20036;-84
2022/01/15 04:28:54;;;;;;;8.98;4.35;;;6.20;99.90;;;;;;4955903;29;20016;-83
2022/01/15 04:31:20;;;;;;;9.20;4.47;;;6.20;99.90;;;;;;4959089;28;20019;-80
2022/01/15 04:33:46;;;;;;;10.43;4.28;;;6.20;99.90;;;;;;4959203;28;20048;-82
2022/01/15 04:36:12;;;;;;;9.18;4.57;;;6.20;99.90;;;;;;4959395;28;20083;-81
2022/01/15 04:38:39;;;;;;;11.38;4.70;;;6.20;99.90;;;;;;4959391;28;20034;-81
2022/01/15 04:41:06;;;;;;;10.98;4.65;;;6.20;99.90;;;;;;4958552;28;20016;-80
2022/01/15 04:43:31;;;;;;;11.15;4.75;;;6.20;99.90;;;;;;4959361;28;20068;-83
2022/01/15 04:45:58;;;;;;;9.32;4.60;;;6.20;99.90;;;;;;4959472;28;20032;-82
2022/01/15 04:48:23;;;;;;;10.25;4.65;;;6.20;99.90;;;;;;4958772;28;20016;-83
2022/01/15 04:50:49;;;;;;;10.52;4.22;;;6.20;99.90;;;;;;4959663;29;20044;-81
2022/01/15 04:53:15;;;;;;;7.90;4.25;;;6.20;99.90;;;;;;4959610;28;20044;-81
2022/01/15 04:55:41;;;;;;;9.23;3.92;;;6.20;99.90;;;;;;4954550;29;20127;-84
2022/01/15 04:58:08;;;;;;;8.88;4.10;;;6.20;99.90;;;;;;4944295;29;20063;-85
2022/01/15 05:00:35;;;;;;;12.27;4.72;;;6.20;99.90;;;;;;4958107;28;20051;-84
2022/01/15 05:03:01;;;;;;;8.75;4.43;;;6.20;99.90;;;;;;4973519;23;20052;-86
2022/01/15 05:05:28;;;;;;;9.48;4.32;;;6.30;99.90;;;;;;4952629;29;20050;-87
2022/01/15 05:07:55;;;;;;;9.43;4.57;;;6.30;99.90;;;;;;4953748;29;20020;-86
2022/01/15 05:10:26;;;;;;;14.15;4.38;;;6.30;99.90;;;;;;4949644;29;20103;-85
2022/01/15 05:12:55;;;;;;;9.45;3.70;;;6.20;99.90;;;;;;4956751;29;20035;-86
2022/01/15 05:15:22;;;;;;;9.30;4.15;;;6.20;99.90;;;;;;4953570;29;20039;-87
2022/01/15 05:17:48;;;;;;;8.43;3.75;;;6.20;99.90;;;;;;4955403;29;20159;-85
2022/01/15 05:20:17;;;;;;;11.23;4.20;;;6.30;99.90;;;;;;4971059;29;20047;-85
2022/01/15 05:22:44;;;;;;;7.82;3.88;;;6.20;99.90;;;;;;4957097;29;20104;-87
2022/01/15 05:25:14;;;;;;;9.60;4.22;;;6.30;99.90;;;;;;4955233;29;20039;-88
2022/01/15 05:27:41;;;;;;;8.18;4.38;;;6.20;99.90;;;;;;4951924;29;20024;-87
2022/01/15 05:30:08;;;;;;;10.15;4.28;;;6.20;99.90;;;;;;4951260;29;20571;-86
2022/01/15 05:32:34;;;;;;;8.73;4.43;;;6.20;99.90;;;;;;4967624;28;20484;-87
2022/01/15 05:35:01;;;;;;;9.20;3.53;;;6.20;99.90;;;;;;4950648;29;20154;-86
2022/01/15 05:37:27;;;;;;;8.70;4.22;;;6.20;99.90;;;;;;4951204;29;20492;-86
2022/01/15 05:39:53;;;;;;;9.73;3.70;;;6.20;99.90;;;;;;4951058;29;20100;-87
2022/01/15 05:42:20;;;;;;;9.05;4.07;;;6.20;99.90;;;;;;4949891;29;20024;-86
2022/01/15 05:44:46;;;;;;;9.95;3.88;;;6.20;99.90;;;;;;4946311;29;20111;-87
2022/01/15 05:47:11;;;;;;;10.27;3.97;;;6.20;99.90;;;;;;4947881;29;20050;-87
2022/01/15 05:49:38;;;;;;;9.00;4.22;;;6.20;99.90;;;;;;4952701;29;20015;-86
2022/01/15 05:52:04;;;;;;;11.68;4.55;;;6.30;99.90;;;;;;4951007;29;20028;-88
2022/01/15 05:54:30;;;;;;;10.48;4.20;;;6.20;99.90;;;;;;4946745;29;20028;-87
2022/01/15 05:56:56;;;;;;;9.85;4.82;;;6.30;99.90;;;;;;4948247;29;20024;-87
2022/01/15 05:59:22;;;;;;;7.70;3.67;;;6.20;99.90;;;;;;4961330;29;20092;-86
2022/01/15 06:01:48;;;;;;;10.32;4.15;;;6.30;99.90;;;;;;4962799;29;20051;-88
2022/01/15 06:04:14;;;;;;;9.82;4.53;;;6.30;99.90;;;;;;4962703;29;20038;-87
2022/01/15 06:06:40;;;;;;;8.65;4.45;;;6.30;99.90;;;;;;4962502;29;20019;-85
2022/01/15 06:09:06;;;;;;;10.88;4.15;;;6.30;99.90;;;;;;4963176;29;20019;-84
2022/01/15 06:11:34;;;;;;;17.23;4.88;;;6.30;99.90;;;;;;4962116;29;20036;-84
2022/01/15 06:14:01;;;;;;;9.70;4.20;;;6.30;99.90;;;;;;4977612;28;20039;-86
2022/01/15 06:16:27;;;;;;;8.23;4.35;;;6.30;99.90;;;;;;4962494;29;20016;-83
2022/01/15 06:18:53;;;;;;;7.80;3.80;;;6.30;99.90;;;;;;4961959;29;20099;-83
2022/01/15 06:21:19;;;;;;;8.43;4.40;;;6.40;99.90;;;;;;4962483;29;20088;-86
2022/01/15 06:23:45;;;;;;;10.20;4.55;;;6.40;99.90;;;;;;4961954;29;20028;-83
2022/01/15 06:26:11;;;;;;;10.98;4.28;;;6.40;99.90;;;;;;4962562;29;20073;-85
2022/01/15 06:28:36;;;;;;;8.65;3.90;;;6.40;99.90;;;;;;4962330;29;20063;-83
2022/01/15 06:31:02;;;;;;;7.70;3.90;;;6.30;99.90;;;;;;4962205;29;20016;-85
2022/01/15 06:33:28;;;;;;;7.75;3.72;;;6.30;99.90;;;;;;4962058;29;20024;-83
2022/01/15 06:35:54;;;;;;;5.63;3.33;;;6.30;99.90;;;;;;4960955;29;20027;-86
2022/01/15 06:38:20;;;;;;;6.75;3.65;;;6.30;99.90;;;;;;4960488;29;20094;-86
2022/01/15 06:40:45;;;;;;;7.90;4.20;;;6.30;99.90;;;;;;4960738;29;20015;-86
2022/01/15 06:43:11;;;;;;;8.18;3.88;;;6.30;99.90;;;;;;4961149;29;20035;-83
2022/01/15 06:45:37;;;;;;;14.38;4.22;;;6.30;99.90;;;;;;4962039;29;20015;-86
2022/01/15 06:48:03;;;;;;;9.45;4.43;;;6.30;99.90;;;;;;4961953;29;20020;-84
2022/01/15 06:50:31;;;;;;;9.45;3.95;;;6.30;99.90;;;;;;4945579;29;20047;-85
2022/01/15 06:52:57;;;;;;;8.63;3.35;;;6.30;99.90;;;;;;4961426;29;20034;-85
2022/01/15 06:55:23;;;;;;;11.95;4.65;;;6.30;99.90;;;;;;4961556;29;20075;-83
2022/01/15 06:57:50;;;;;;;8.35;3.75;;;6.30;99.90;;;;;;4961146;29;20027;-85
2022/01/15 07:00:16;;;;;;;10.82;3.88;;;6.30;99.90;;;;;;4961034;29;20015;-85
2022/01/15 07:02:42;;;;;;;12.15;4.28;;;6.40;99.90;;;;;;4958923;29;20107;-86
2022/01/15 07:05:09;;;;;;;8.60;4.50;;;6.40;99.90;;;;;;4955126;29;20028;-86
2022/01/15 07:07:40;;;;;;;9.25;4.57;;;6.40;99.90;;;;;;4958760;29;20040;-85
2022/01/15 07:10:07;;;;;;;8.80;4.20;;;6.40;99.90;;;;;;4961193;29;20049;-84
2022/01/15 07:12:33;;;;;;;7.78;3.63;;;6.40;99.90;;;;;;4940863;29;20039;-86
2022/01/15 07:14:59;;;;;;;8.48;3.90;;;6.40;99.90;;;;;;4959347;29;20248;-86
2022/01/15 07:17:24;;;;;;;10.35;4.10;;;6.40;99.90;;;;;;4960055;29;20007;-85
2022/01/15 07:19:51;;;;;;;8.23;3.75;;;6.40;99.90;;;;;;4960789;29;20063;-87
2022/01/15 07:22:18;;;;;;;7.75;3.95;;;6.40;99.90;;;;;;4944724;29;20020;-86
2022/01/15 07:24:43;;;;;;;12.00;3.60;;;6.40;99.90;;;;;;4960510;29;20031;-84
2022/01/15 07:27:09;;;;;;;10.55;3.92;;;6.50;99.90;;;;;;4960517;29;20035;-85
2022/01/15 07:29:37;;;;;;;7.80;3.78;;;6.50;99.90;;;;;;4961308;29;20028;-86
2022/01/15 07:32:04;;;;;;;9.55;4.70;;;6.50;99.90;;;;;;4959917;29;20039;-85
2022/01/15 07:34:30;;;;;;;10.20;3.97;;;6.50;99.90;;;;;;4960703;29;20032;-85
2022/01/15 07:36:57;;;;;;;6.18;3.25;;;6.50;99.90;;;;;;4961100;29;20024;-86
2022/01/15 07:39:24;;;;;;;9.52;4.47;;;6.60;99.90;;;;;;4960217;29;20032;-85
2022/01/15 07:41:51;;;;;;;7.80;4.03;;;6.50;99.90;;;;;;4960195;29;20054;-84
2022/01/15 07:44:17;;;;;;;8.93;4.15;;;6.50;99.90;;;;;;4955784;29;20012;-87
2022/01/15 07:46:43;;;;;;;11.82;4.20;;;6.50;99.90;;;;;;4941960;29;20012;-85
2022/01/15 07:49:09;;;;;;;9.38;4.35;;;6.50;99.90;;;;;;4941220;29;20038;-84
2022/01/15 07:51:35;;;;;;;7.95;4.18;;;6.50;99.90;;;;;;4938120;29;20036;-83
2022/01/15 07:54:00;;;;;;;7.78;4.25;;;6.50;99.90;;;;;;4939826;29;20023;-85
2022/01/15 07:56:26;;;;;;;9.32;4.15;;;6.50;99.90;;;;;;4940791;29;20032;-86
2022/01/15 07:58:52;;;;;;;9.50;4.65;;;6.50;99.90;;;;;;4937922;29;20079;-84
2022/01/15 08:01:18;;;;;;;8.57;3.88;;;6.50;99.90;;;;;;4933691;29;20027;-88
2022/01/15 08:03:46;;;;;;;12.73;5.22;;;6.50;99.90;;;;;;4938968;29;20107;-88
2022/01/15 08:06:14;;;;;;;9.57;4.40;;;6.50;99.90;;;;;;4939000;29;20028;-89
2022/01/15 08:08:40;;;;;;;6.93;3.50;;;6.60;99.90;;;;;;4934872;29;20103;-89
2022/01/15 08:11:06;;;;;;;8.60;4.22;;;6.60;99.90;;;;;;4916826;29;20056;-88
2022/01/15 08:13:33;;;;;;;11.35;4.15;;;6.60;99.90;;;;;;4933115;29;20496;-89
2022/01/15 08:16:01;;;;;;;10.43;4.20;;;6.70;99.90;;;;;;4934632;29;20043;-89
2022/01/15 08:18:29;;;;;;;8.90;4.13;;;6.70;99.90;;;;;;4934712;29;20051;-90
2022/01/15 08:20:55;;;;;;;9.05;4.15;;;6.70;99.90;;;;;;4937363;29;20013;-91
2022/01/15 08:23:21;;;;;;;12.23;4.00;;;6.80;99.90;;;;;;4951698;29;20016;-91
2022/01/15 08:25:47;;;;;;;12.05;4.50;;;6.80;99.90;;;;;;4934235;29;20036;-88
2022/01/15 08:28:13;;;;;;;8.35;4.10;;;6.80;99.90;;;;;;4937745;29;20036;-91
2022/01/15 08:30:39;;;;;;;9.20;4.20;;;6.90;99.90;;;;;;4934389;29;20090;-89
2022/01/15 08:33:05;;;;;;;11.43;4.55;;;6.90;99.90;;;;;;4935193;29;20027;-89
2022/01/15 08:35:31;;;;;;;12.27;4.72;;;6.90;99.90;;;;;;4937397;29;20095;-87
2022/01/15 08:38:02;;;;;;;7.45;4.13;;;6.90;99.90;;;;;;4936496;29;20036;-90
2022/01/15 08:40:29;;;;;;;10.35;5.30;;;6.90;99.90;;;;;;4935289;29;20032;-89
2022/01/15 08:42:56;;;;;;;11.27;3.72;;;6.90;99.90;;;;;;4935664;29;20043;-89
2022/01/15 08:45:21;;;;;;;14.15;4.28;;;7.00;99.90;;;;;;4949518;29;20051;-87
2022/01/15 08:47:48;;;;;;;9.07;4.78;;;7.00;99.90;;;;;;4935739;29;20039;-88
2022/01/15 08:50:15;;;;;;;19.63;4.40;;;7.10;99.90;;;;;;4935247;29;20036;-87
2022/01/15 08:52:42;;;;;;;10.55;4.20;;;7.00;99.90;;;;;;4933257;29;20047;-88
2022/01/15 08:55:08;;;;;;;8.73;4.30;;;7.10;99.90;;;;;;4934016;29;20036;-86
2022/01/15 08:57:35;;;;;;;8.00;4.18;;;7.10;99.90;;;;;;4931963;29;20083;-88
2022/01/15 09:00:05;;;;;;;7.32;4.28;;;7.20;99.90;;;;;;4934119;29;20060;-87
2022/01/15 09:02:30;;;;;;;11.57;4.60;;;7.20;99.90;;;;;;4934901;29;20032;-87
2022/01/15 09:04:57;;;;;;;12.35;3.58;;;7.20;99.90;;;;;;4935207;29;20121;-87
2022/01/15 09:07:22;;;;;;;10.48;4.10;;;7.30;99.90;;;;;;4936035;29;20084;-89
2022/01/15 09:09:48;;;;;;;10.20;4.82;;;7.30;99.90;;;;;;4931995;29;20060;-87
2022/01/15 09:12:16;;;;;;;8.23;4.22;;;7.40;99.90;;;;;;4952081;29;20016;-87
2022/01/15 09:14:43;;;;;;;9.82;4.00;;;7.50;99.90;;;;;;4932620;29;20032;-89
2022/01/15 09:17:09;;;;;;;10.27;4.97;;;7.50;99.90;;;;;;4930429;29;20040;-87
2022/01/15 09:19:35;;;;;;;10.93;4.28;;;7.60;99.90;;;;;;4930325;29;20403;-88
2022/01/15 09:22:05;;;;;;;7.18;3.55;;;7.60;99.90;;;;;;4930243;29;20055;-88
2022/01/15 09:24:31;;;;;;;7.55;3.55;;;7.70;99.90;;;;;;4932051;29;20070;-87
2022/01/15 09:32:09;;;;;;;7.30;3.65;;;7.70;99.90;;;;;;4935450;29;20032;-86
2022/01/15 09:34:36;;;;;;;8.02;3.67;;;7.70;99.90;;;;;;4938749;29;20034;-85
2022/01/15 09:37:03;;;;;;;10.55;3.95;;;7.70;99.90;;;;;;4939338;29;20040;-86
2022/01/15 09:39:30;;;;;;;9.38;3.88;;;7.70;99.90;;;;;;4943759;29;20016;-83
2022/01/15 09:41:56;;;;;;;10.52;3.95;;;7.80;99.90;;;;;;4927303;29;20028;-85
2022/01/15 09:44:23;;;;;;;13.23;4.03;;;7.90;99.90;;;;;;4943260;29;20048;-84
2022/01/15 09:46:50;;;;;;;9.43;3.47;;;7.80;99.90;;;;;;4943357;29;20039;-85
2022/01/15 09:49:18;;;;;;;7.70;3.85;;;7.70;99.90;;;;;;4943558;29;20083;-86
2022/01/15 09:51:47;;;;;;;10.07;3.80;;;7.70;99.90;;;;;;4943056;29;20024;-84
2022/01/15 09:54:15;;;;;;;9.30;3.65;;;7.70;99.90;;;;;;4940644;29;20016;-87
2022/01/15 09:56:42;;;;;;;8.25;3.67;;;7.70;99.90;;;;;;4936339;29;20279;-86
2022/01/15 09:59:08;;;;;;;9.15;4.20;;;7.70;99.90;;;;;;4939650;29;20092;-85
2022/01/15 10:01:34;;;;;;;7.15;3.65;;;7.70;99.90;;;;;;4940789;29;20028;-87
2022/01/15 10:04:00;;;;;;;9.55;3.92;;;7.70;99.90;;;;;;4941187;29;20100;-88
2022/01/15 10:06:27;;;;;;;10.75;4.53;;;7.80;99.90;;;;;;4935716;29;20040;-87
2022/01/15 10:09:07;;;;;;;13.38;4.03;;;7.90;99.90;;;;;;4930293;29;20060;-89
2022/01/15 10:11:47;;;;;;;9.15;4.18;;;7.90;99.90;;;;;;4928646;29;20114;-87
2022/01/15 10:14:24;;;;;;;8.13;4.35;;;8.00;99.90;;;;;;4929689;29;20510;-88
2022/01/15 10:16:49;;;;;;;10.40;4.15;;;8.10;99.90;;;;;;4929722;29;20481;-87
2022/01/15 10:19:32;;;;;;;11.50;4.60;;;8.20;99.80;;;;;;4929841;29;20085;-89
2022/01/15 10:22:19;;;;;;;8.90;3.78;;;8.20;99.60;;;;;;4932351;29;20039;-86
2022/01/15 10:24:57;;;;;;;10.98;4.22;;;8.30;99.40;;;;;;4936477;29;20059;-87
2022/01/15 10:27:29;;;;;;;9.10;4.65;;;8.30;99.40;;;;;;4932203;29;20047;-88
2022/01/15 10:29:59;;;;;;;12.23;4.25;;;8.30;99.30;;;;;;4930105;29;20461;-90
2022/01/15 10:32:27;;;;;;;7.50;3.47;;;8.30;99.10;;;;;;4933185;29;20044;-89
2022/01/15 10:34:54;;;;;;;8.40;3.50;;;8.20;99.30;;;;;;4928832;29;20496;-89
2022/01/15 10:37:27;;;;;;;10.00;4.22;;;8.30;99.50;;;;;;4935424;29;20036;-88
2022/01/15 10:39:55;;;;;;;6.85;3.63;;;8.40;99.30;;;;;;4931266;29;20032;-89
2022/01/15 10:42:23;;;;;;;11.18;3.75;;;8.40;98.60;;;;;;4932922;29;20091;-88
2022/01/15 10:44:50;;;;;;;6.97;3.78;;;8.40;98.70;;;;;;4926684;29;20040;-88
2022/01/15 10:47:18;;;;;;;9.93;4.03;;;8.50;98.60;;;;;;4927489;29;20047;-88
2022/01/15 10:49:44;;;;;;;14.63;4.03;;;8.50;98.40;;;;;;4929805;29;20047;-90
2022/01/15 10:52:25;;;;;;;10.93;4.63;;;8.60;98.40;;;;;;4928483;29;20100;-89
2022/01/15 10:54:57;;;;;;;10.27;3.95;;;8.70;98.30;;;;;;4928771;29;20060;-86
2022/01/15 10:57:37;;;;;;;9.25;3.85;;;8.80;97.80;;;;;;4928502;29;20028;-88
2022/01/15 11:00:14;;;;;;;9.10;3.67;;;8.90;97.40;;;;;;4929596;29;20508;-90
2022/01/15 11:02:42;;;;;;;9.18;3.50;;;9.00;97.30;;;;;;4972786;23;20059;-88
2022/01/15 11:05:31;;;;;;;8.75;4.07;;;9.10;97.20;;;;;;4959129;29;20483;-88
2022/01/15 11:08:15;;;;;;;8.57;3.28;;;9.90;96.60;;;;;;4959398;29;20043;-87
2022/01/15 11:11:00;;;;;;;10.90;4.05;;;10.80;95.00;;;;;;4958174;29;20040;-88
2022/01/15 11:13:30;;;;;;;7.70;3.45;;;11.50;94.10;;;;;;4960616;29;20024;-88
2022/01/15 11:16:05;;;;;;;8.98;3.53;;;11.90;92.80;;;;;;4960041;29;20039;-88
2022/01/15 11:18:37;;;;;;;8.98;3.90;;;11.80;92.70;;;;;;4961164;29;20058;-88
2022/01/15 11:21:22;;;;;;;8.15;4.20;;;11.70;92.40;;;;;;4961273;29;20047;-89
2022/01/15 11:23:50;;;;;;;8.68;4.50;;;11.50;92.20;;;;;;4944672;29;20132;-89
2022/01/15 11:26:16;;;;;;;9.57;4.00;;;11.50;92.30;;;;;;4976620;28;20079;-88
2022/01/15 11:28:43;;;;;;;8.80;4.32;;;11.50;92.20;;;;;;4961599;29;20028;-88
2022/01/15 11:31:30;;;;;;;8.05;4.10;;;11.80;91.70;;;;;;4976922;28;20008;-89
2022/01/15 11:34:01;;;;;;;9.50;3.80;;;12.30;91.60;;;;;;4975845;28;20019;-86
2022/01/15 11:36:28;;;;;;;6.82;3.53;;;13.40;90.30;;;;;;4959709;29;20094;-88
2022/01/15 11:38:54;;;;;;;7.13;3.60;;;14.30;87.40;;;;;;4959585;29;20051;-88
2022/01/15 11:41:22;;;;;;;7.30;3.88;;;14.80;84.90;;;;;;4958792;29;20071;-89
2022/01/15 11:43:50;;;;;;;9.25;3.67;;;15.50;83.10;;;;;;4959170;29;20051;-87
2022/01/15 11:46:44;;;;;;;7.43;3.47;;;16.50;79.50;;;;;;4958935;29;20042;-88
2022/01/15 11:49:29;;;;;;;7.57;3.60;;;16.90;76.40;;;;;;4954851;29;20028;-87
2022/01/15 11:51:56;;;;;;;10.20;3.90;;;17.00;74.70;;;;;;4952295;29;20028;-88
2022/01/15 11:54:22;;;;;;;7.82;3.10;;;16.10;74.80;;;;;;4955743;29;20027;-88
2022/01/15 11:56:49;;;;;;;9.23;4.38;;;14.90;76.90;;;;;;4946841;29;20031;-86
2022/01/15 11:59:23;;;;;;;7.13;4.13;;;13.50;78.90;;;;;;4956359;29;20031;-89
2022/01/15 12:01:51;;;;;;;10.85;3.72;;;12.70;80.70;;;;;;4958788;29;20055;-90
2022/01/15 12:04:31;;;;;;;8.80;3.38;;;12.10;82.20;;;;;;4956902;29;20022;-89
2022/01/15 12:07:06;;;;;;;9.00;3.45;;;11.70;83.40;;;;;;4976472;28;20032;-89
2022/01/15 12:09:49;;;;;;;9.05;4.20;;;11.40;84.00;;;;;;4957841;29;20104;-90
2022/01/15 12:14:52;;;;;;;5.45;3.13;;;10.60;85.70;;;;;;4946221;29;20048;-90
2022/01/15 12:17:39;;;;;;;11.43;3.97;;;10.30;86.50;;;;;;4946260;29;20086;-89
2022/01/15 12:20:18;;;;;;;7.15;3.50;;;10.00;87.50;;;;;;4949499;29;20066;-88
2022/01/15 12:22:48;;;;;;;8.35;3.58;;;9.60;88.80;;;;;;4950528;29;20071;-88
2022/01/15 12:25:17;;;;;;;13.05;3.75;;;9.50;89.50;;;;;;4948292;29;20031;-88
2022/01/15 12:27:45;;;;;;;11.18;3.88;;;9.40;90.00;;;;;;4943350;29;20032;-88
2022/01/15 12:30:19;;;;;;;5.63;3.20;;;9.30;90.10;;;;;;4952189;29;20024;-87
2022/01/15 12:32:54;;;;;;;9.48;3.50;;;9.30;90.30;;;;;;4951871;28;20023;-88
2022/01/15 12:35:24;;;;;;;11.40;3.38;;;9.20;90.60;;;;;;4952489;29;20027;-89
2022/01/15 12:38:05;;;;;;;10.88;4.22;;;8.90;91.00;;;;;;4951042;29;20034;-86
2022/01/15 12:40:44;;;;;;;7.03;3.80;;;8.70;91.30;;;;;;4950447;29;20030;-88
2022/01/15 12:43:19;;;;;;;9.23;3.28;;;8.60;91.60;;;;;;4949810;28;20503;-87
2022/01/15 12:45:56;;;;;;;8.50;3.28;;;8.50;91.80;;;;;;4949384;29;20027;-89
2022/01/15 12:48:23;;;;;;;;;;;8.40;92.10;;;;;;4954594;29;20436;-89
2022/01/15 12:51:10;;;;;;;6.95;3.28;;;8.30;92.20;;;;;;4946950;29;19914;-89
2022/01/15 12:53:38;;;;;;;8.52;3.65;;;8.30;92.30;;;;;;4964842;28;20043;-87
2022/01/15 12:56:12;;;;;;;10.65;3.60;;;8.20;92.50;;;;;;4964347;28;20031;-88
2022/01/15 12:58:42;;;;;;;6.43;3.57;;;8.10;92.80;;;;;;4964377;28;20041;-87
2022/01/15 13:01:14;;;;;;;8.02;3.38;;;7.90;93.00;;;;;;4965874;28;20270;-89
2022/01/15 13:03:40;;;;;;;10.80;3.45;;;7.90;93.50;;;;;;4964267;28;20039;-89
2022/01/15 13:06:07;;;;;;;10.73;3.70;;;7.80;93.40;;;;;;4965666;28;20031;-88
2022/01/15 13:08:41;;;;;;;8.75;3.50;;;7.80;93.60;;;;;;4963220;28;20058;-88
2022/01/15 13:13:40;;;;;;;6.68;3.97;;;7.80;93.90;;;;;;4979646;28;20051;-88
2022/01/15 13:16:15;;;;;;;13.32;3.85;;;7.70;94.10;;;;;;4969816;28;20027;-87
2022/01/15 13:18:43;;;;;;;8.98;3.65;;;7.70;94.30;;;;;;4969508;28;20031;-87
2022/01/15 13:21:12;;;;;;;7.50;3.33;;;7.60;94.40;;;;;;4978359;28;20030;-84
2022/01/15 13:23:43;;;;;;;9.82;3.60;;;7.60;94.60;;;;;;4982529;28;20066;-84
2022/01/15 13:26:12;;;;;;;6.57;3.53;;;7.50;95.00;;;;;;4981991;28;20062;-84
2022/01/15 13:28:40;;;;;;;10.60;3.90;;;7.50;95.20;;;;;;4982100;28;20031;-85
2022/01/15 13:31:07;;;;;;;11.57;3.80;;;7.50;95.10;;;;;;4981841;28;20031;-83